메인 페이지
METAR-TAF:

METAR-TAF

공항 :

팔마데마요르카, 스페인

위도: 39-33N, 경도: 002-44E, 고도: 4m

현재 날씨관측

예보는 30분 전, 11:30시(UTC)에 발표되었습니다.
10kt동북동풍과 동남동풍을 오가는
온도 25°C
습도 69%
기압 1020 hPa
시정 10km 이상
고도 2500ft 상공 구름 조금

METAR: LEPA 201130Z 09010KT 060V120 9999 FEW025 25/19 Q1020 NOSIG

시각: 14:00 (12:00 UTC)

예보

예보는 1 시간 0분 전, 11:00시(UTC)에 발표되었습니다.
예보 대상 시간: 20일 12시부터 21일 12시까지 (UTC)
동북동10kt
시정 10km 이상
고도 2000ft 상공 구름 보통
전환 중
20일 16시부터 20일 18시까지 (UTC)
북동6kt
확률 30% :
일시적
20일 12시부터 20일 15시까지 (UTC)
고도 2000ft 상공 구름 많음
고도 2500ft 상공 구름 보통, 적란운.
확률 30% :
일시적
20일 18시부터 21일 06시까지 (UTC)
시정: 3000m
고도 1500ft 상공 구름 많음
박무

TAF: LEPA 201100Z 2012/2112 07010KT 9999 SCT020 TX26/2012Z TN15/2106Z BECMG 2016/2018 05006KT PROB30 TEMPO 2012/2015 BKN020 SCT025CB PROB30 TEMPO 2018/2106 3000 BR BKN015

4,000개 이상의 공항 관측 자료 및 예보 (METAR 및 TAF 보고).

지도상에서 검색 가능한 기상관측소가 노란 점과 빨간 점으로 표시되어 있습니다.

기상관측소 명을 보려면 표시 위로 마우스를 이동하세요.

날씨 관측과 예보를 보려면 클릭하세요.

지도 변경 : 확대하려면 엑스 표시가 있는 녹색 버튼, 축소하려면 빼기 표시가 있는 녹색 버튼, 다음 페이지의 지도를 보려면 녹색 화살표를 클릭하세요.


METAR-TAF: